createdAt,value
2022-08-11T00:00:14.803Z,22.80
2022-08-11T00:02:51.616Z,22.80
2022-08-11T00:05:21.712Z,22.70
2022-08-11T00:07:59.209Z,22.70
2022-08-11T00:10:28.768Z,22.70
2022-08-11T00:13:00.227Z,22.70
2022-08-11T00:15:41.958Z,22.70
2022-08-11T00:18:10.376Z,22.60
2022-08-11T00:20:42.809Z,22.60
2022-08-11T00:23:19.940Z,22.60
2022-08-11T00:25:50.502Z,22.60
2022-08-11T00:28:34.605Z,22.50
2022-08-11T00:31:31.245Z,22.50
2022-08-11T00:34:00.840Z,22.50
2022-08-11T00:36:55.797Z,22.50
2022-08-11T00:39:28.408Z,22.50
2022-08-11T00:42:34.874Z,22.50
2022-08-11T00:45:58.260Z,22.50
2022-08-11T00:49:28.398Z,22.40
2022-08-11T00:52:07.000Z,22.40
2022-08-11T00:54:51.831Z,22.30
2022-08-11T00:57:51.109Z,22.30
2022-08-11T01:00:25.700Z,22.30
2022-08-11T01:03:30.812Z,22.20
2022-08-11T01:06:09.651Z,22.20
2022-08-11T01:09:22.186Z,22.20
2022-08-11T01:12:29.318Z,22.20
2022-08-11T01:15:34.378Z,22.10
2022-08-11T01:18:42.399Z,22.10
2022-08-11T01:21:30.990Z,22.10
2022-08-11T01:24:36.658Z,22.10
2022-08-11T01:27:54.118Z,22.10
2022-08-11T01:30:58.743Z,22.10
2022-08-11T01:34:08.675Z,22.00
2022-08-11T01:36:57.233Z,22.00
2022-08-11T01:40:11.881Z,21.90
2022-08-11T01:43:34.217Z,21.90
2022-08-11T01:46:21.652Z,21.90
2022-08-11T01:50:05.804Z,21.80
2022-08-11T01:52:33.632Z,21.80
2022-08-11T01:55:33.960Z,21.80
2022-08-11T01:58:44.207Z,21.80
2022-08-11T02:01:29.602Z,21.70
2022-08-11T02:04:34.785Z,21.70
2022-08-11T02:07:20.649Z,21.70
2022-08-11T02:10:38.636Z,21.70
2022-08-11T02:13:46.785Z,21.60
2022-08-11T02:16:49.195Z,21.60
2022-08-11T02:19:49.779Z,21.60
2022-08-11T02:23:07.672Z,21.60
2022-08-11T02:26:06.004Z,21.60
2022-08-11T02:29:02.111Z,21.60
2022-08-11T02:32:30.736Z,21.60
2022-08-11T02:35:04.020Z,21.60
2022-08-11T02:37:34.111Z,21.50
2022-08-11T02:40:34.251Z,21.50
2022-08-11T02:43:41.018Z,21.50
2022-08-11T02:46:25.041Z,21.50
2022-08-11T02:49:22.922Z,21.60
2022-08-11T02:52:19.270Z,21.50
2022-08-11T02:55:44.657Z,21.50
2022-08-11T02:59:09.441Z,21.50
2022-08-11T03:02:41.295Z,21.50
2022-08-11T03:05:12.165Z,21.40
2022-08-11T03:08:11.458Z,21.40
2022-08-11T03:10:44.343Z,21.40
2022-08-11T03:13:43.066Z,21.40
2022-08-11T03:17:08.421Z,21.40
2022-08-11T03:19:54.247Z,21.40
2022-08-11T03:22:34.679Z,21.40
2022-08-11T03:25:31.502Z,21.40
2022-08-11T03:28:11.244Z,21.40
2022-08-11T03:31:19.322Z,21.40
2022-08-11T03:34:07.129Z,21.30
2022-08-11T03:37:16.029Z,21.40
2022-08-11T03:40:46.711Z,21.30
2022-08-11T03:43:45.781Z,21.30
2022-08-11T03:46:59.776Z,21.30
2022-08-11T03:50:03.849Z,21.30
2022-08-11T03:52:50.015Z,21.30
2022-08-11T03:55:45.024Z,21.30
2022-08-11T03:58:35.872Z,21.20
2022-08-11T04:01:38.475Z,21.20
2022-08-11T04:04:58.900Z,21.20
2022-08-11T04:07:34.509Z,21.20
2022-08-11T04:10:51.651Z,21.20
2022-08-11T04:14:36.872Z,21.20
2022-08-11T04:17:39.746Z,21.10
2022-08-11T04:20:58.014Z,21.10
2022-08-11T04:24:36.971Z,21.10
2022-08-11T04:26:57.487Z,21.10
2022-08-11T04:30:34.724Z,21.10
2022-08-11T04:33:49.694Z,21.10
2022-08-11T04:37:26.259Z,21.10
2022-08-11T04:40:46.015Z,21.10
2022-08-11T04:43:28.508Z,21.10
2022-08-11T04:46:26.650Z,21.10
2022-08-11T04:49:59.478Z,21.20
2022-08-11T04:52:54.384Z,21.20
2022-08-11T04:56:29.150Z,21.20
2022-08-11T04:59:29.608Z,21.20
2022-08-11T05:02:36.767Z,21.20
2022-08-11T05:05:56.647Z,21.30
2022-08-11T05:09:00.977Z,21.30
2022-08-11T05:11:36.039Z,21.30
2022-08-11T05:14:24.586Z,21.40
2022-08-11T05:17:30.147Z,21.40
2022-08-11T05:20:16.186Z,21.50
2022-08-11T05:23:09.831Z,21.50
2022-08-11T05:26:47.117Z,21.60
2022-08-11T05:29:21.568Z,21.70
2022-08-11T05:32:26.849Z,21.80
2022-08-11T05:34:55.960Z,21.90
2022-08-11T05:37:33.011Z,22.00
2022-08-11T05:40:30.722Z,22.10
2022-08-11T05:43:25.689Z,22.20
2022-08-11T05:46:24.263Z,22.30
2022-08-11T05:49:11.765Z,22.40
2022-08-11T05:52:05.791Z,22.50
2022-08-11T05:55:06.157Z,22.60
2022-08-11T05:57:49.550Z,22.80
2022-08-11T06:00:20.055Z,22.90
2022-08-11T06:02:55.374Z,23.00
2022-08-11T06:05:38.363Z,23.10
2022-08-11T06:08:12.616Z,23.30
2022-08-11T06:10:45.369Z,23.40
2022-08-11T06:13:17.545Z,23.50
2022-08-11T06:15:49.647Z,23.60
2022-08-11T06:18:17.947Z,23.80
2022-08-11T06:20:56.443Z,23.90
2022-08-11T06:23:32.002Z,24.00
2022-08-11T06:26:00.457Z,24.10
2022-08-11T06:28:38.366Z,24.20
2022-08-11T06:31:24.041Z,24.30
2022-08-11T06:33:51.176Z,24.30
2022-08-11T06:36:38.788Z,24.50
2022-08-11T06:39:29.396Z,24.50
2022-08-11T06:42:10.981Z,24.60
2022-08-11T06:44:53.956Z,24.60
2022-08-11T06:47:21.180Z,24.70
2022-08-11T06:50:07.867Z,24.80
2022-08-11T06:52:42.304Z,24.80
2022-08-11T06:55:57.233Z,24.90
2022-08-11T06:58:54.514Z,24.90
2022-08-11T07:02:08.657Z,25.10
2022-08-11T07:04:43.313Z,25.20
2022-08-11T07:08:34.347Z,25.40
2022-08-11T07:12:04.315Z,25.70
2022-08-11T07:14:50.787Z,25.90
2022-08-11T07:17:25.898Z,26.10
2022-08-11T07:20:20.968Z,26.30
2022-08-11T07:23:18.211Z,26.50
2022-08-11T07:26:11.207Z,26.60
2022-08-11T07:28:59.132Z,26.80
2022-08-11T07:31:42.106Z,26.90
2022-08-11T07:34:18.713Z,26.90
2022-08-11T07:36:59.501Z,27.00
2022-08-11T07:39:33.562Z,27.00
2022-08-11T07:42:08.419Z,27.00
2022-08-11T07:44:59.691Z,27.00
2022-08-11T07:47:47.301Z,27.00
2022-08-11T07:50:33.964Z,26.90
2022-08-11T07:53:03.444Z,26.80
2022-08-11T07:55:50.241Z,26.70
2022-08-11T07:58:45.694Z,26.60
2022-08-11T08:01:44.026Z,26.60
2022-08-11T08:04:36.350Z,26.50
2022-08-11T08:07:24.126Z,26.50
2022-08-11T08:10:14.071Z,26.50
2022-08-11T08:13:01.699Z,26.50
2022-08-11T08:15:48.789Z,26.50
2022-08-11T08:18:26.700Z,26.50
2022-08-11T08:20:57.354Z,26.50
2022-08-11T08:23:34.689Z,26.50
2022-08-11T08:26:28.317Z,26.50
2022-08-11T08:29:17.708Z,26.60
2022-08-11T08:31:47.035Z,26.60
2022-08-11T08:34:15.976Z,26.60
2022-08-11T08:36:50.559Z,26.60
2022-08-11T08:39:22.883Z,26.60
2022-08-11T08:41:56.761Z,26.70
2022-08-11T08:44:38.398Z,26.70
2022-08-11T08:47:13.679Z,26.70
2022-08-11T08:49:49.446Z,26.80
2022-08-11T08:52:33.292Z,26.80
2022-08-11T08:55:19.397Z,26.80
2022-08-11T08:57:50.741Z,26.90
2022-08-11T09:00:23.043Z,26.90
2022-08-11T09:02:51.985Z,27.00
2022-08-11T09:05:20.139Z,27.00
2022-08-11T09:07:51.210Z,27.10
2022-08-11T09:10:20.499Z,27.10
2022-08-11T09:12:49.205Z,27.20
2022-08-11T09:15:19.667Z,27.20
2022-08-11T09:17:52.043Z,27.30
2022-08-11T09:20:26.127Z,27.30
2022-08-11T09:26:30.489Z,27.30
2022-08-11T09:28:59.953Z,27.40
2022-08-11T09:31:34.543Z,27.40
2022-08-11T09:34:06.338Z,27.40
2022-08-11T09:36:53.255Z,27.50
2022-08-11T09:39:44.010Z,27.50
2022-08-11T09:42:16.712Z,27.50
2022-08-11T09:44:52.773Z,27.50
2022-08-11T09:47:28.974Z,27.50
2022-08-11T09:50:02.568Z,27.60
2022-08-11T09:52:38.710Z,27.60
2022-08-11T09:55:11.207Z,27.70
2022-08-11T09:58:05.936Z,27.70
2022-08-11T10:00:37.555Z,27.70
2022-08-11T10:03:20.478Z,27.80
2022-08-11T10:06:12.130Z,27.80
2022-08-11T10:08:42.318Z,27.90
2022-08-11T10:11:14.738Z,27.90
2022-08-11T10:14:32.597Z,27.90
2022-08-11T10:16:52.087Z,28.00
2022-08-11T10:19:22.136Z,28.00
2022-08-11T10:22:13.296Z,28.00
2022-08-11T10:25:02.915Z,28.10
2022-08-11T10:28:17.691Z,28.10
2022-08-11T10:30:36.408Z,28.10
2022-08-11T10:33:37.671Z,28.10
2022-08-11T10:36:15.968Z,28.10
2022-08-11T10:38:46.766Z,28.20
2022-08-11T10:41:33.709Z,28.20
2022-08-11T10:44:03.962Z,28.20
2022-08-11T10:46:50.832Z,28.30
2022-08-11T10:49:19.748Z,28.30
2022-08-11T10:52:06.518Z,28.30
2022-08-11T10:54:54.672Z,28.30
2022-08-11T10:57:41.833Z,28.30
2022-08-11T11:00:15.097Z,28.30
2022-08-11T11:02:44.585Z,28.30
2022-08-11T11:05:32.637Z,28.40
2022-08-11T11:08:45.578Z,28.40
2022-08-11T11:11:18.278Z,28.40
2022-08-11T11:14:29.161Z,28.50
2022-08-11T11:17:15.721Z,28.50
2022-08-11T11:19:44.965Z,28.50
2022-08-11T11:22:33.897Z,28.50
2022-08-11T11:25:09.088Z,28.50
2022-08-11T11:27:56.661Z,28.50
2022-08-11T11:30:32.301Z,28.60
2022-08-11T11:33:18.429Z,28.60
2022-08-11T11:36:07.149Z,28.60
2022-08-11T11:38:34.579Z,28.70
2022-08-11T11:41:20.620Z,28.70
2022-08-11T11:43:48.154Z,28.70
2022-08-11T11:46:17.059Z,28.70
2022-08-11T11:48:44.513Z,28.70
2022-08-11T11:51:14.088Z,28.70
2022-08-11T11:53:45.522Z,28.80
2022-08-11T11:56:13.564Z,28.80
2022-08-11T11:58:59.505Z,28.80
2022-08-11T12:01:27.307Z,28.90
2022-08-11T12:03:56.769Z,28.90
2022-08-11T12:06:25.509Z,28.90
2022-08-11T12:08:56.519Z,28.90
2022-08-11T12:11:44.656Z,29.00
2022-08-11T12:14:12.643Z,29.00
2022-08-11T12:16:44.950Z,29.00
2022-08-11T12:19:16.233Z,29.00
2022-08-11T12:22:02.859Z,29.10
2022-08-11T12:24:51.401Z,29.10
2022-08-11T12:27:25.510Z,29.10
2022-08-11T12:30:00.449Z,29.10
2022-08-11T12:32:34.905Z,29.10
2022-08-11T12:35:02.495Z,29.20
2022-08-11T12:37:38.298Z,29.20
2022-08-11T12:40:42.536Z,29.20
2022-08-11T12:43:41.303Z,29.20
2022-08-11T12:46:31.913Z,29.20
2022-08-11T12:49:26.652Z,29.20
2022-08-11T12:52:13.582Z,29.20
2022-08-11T12:54:54.376Z,29.30
2022-08-11T12:58:00.377Z,29.30
2022-08-11T13:00:48.531Z,29.30
2022-08-11T13:03:38.438Z,29.30
2022-08-11T13:06:07.059Z,29.30
2022-08-11T13:08:38.431Z,29.30
2022-08-11T13:11:25.549Z,29.30
2022-08-11T13:14:15.278Z,29.40
2022-08-11T13:17:03.430Z,29.40
2022-08-11T13:19:32.469Z,29.30
2022-08-11T13:22:00.922Z,29.30
2022-08-11T13:24:28.651Z,29.30
2022-08-11T13:26:56.430Z,29.30
2022-08-11T13:29:29.046Z,29.30
2022-08-11T13:31:59.900Z,29.30
2022-08-11T13:34:31.077Z,29.40
2022-08-11T13:37:01.677Z,29.40
2022-08-11T13:39:31.676Z,29.40
2022-08-11T13:42:00.952Z,29.40
2022-08-11T13:44:32.015Z,29.40
2022-08-11T13:47:10.646Z,29.40
2022-08-11T13:49:41.257Z,29.40
2022-08-11T13:52:15.526Z,29.40
2022-08-11T13:54:46.763Z,29.40
2022-08-11T13:58:06.435Z,29.40
2022-08-11T14:00:23.811Z,29.40
2022-08-11T14:02:57.277Z,29.40
2022-08-11T14:05:40.370Z,29.40
2022-08-11T14:08:32.539Z,29.50
2022-08-11T14:12:21.692Z,29.50
2022-08-11T14:14:21.404Z,29.40
2022-08-11T14:16:51.331Z,29.40
2022-08-11T14:19:23.287Z,29.50
2022-08-11T14:22:08.411Z,29.50
2022-08-11T14:24:43.369Z,29.50
2022-08-11T14:28:32.021Z,29.50
2022-08-11T14:30:01.080Z,29.50
2022-08-11T14:32:28.278Z,29.50
2022-08-11T14:34:55.846Z,29.50
2022-08-11T14:37:25.619Z,29.50
2022-08-11T14:40:21.562Z,29.50
2022-08-11T14:43:11.824Z,29.50
2022-08-11T14:45:59.109Z,29.50
2022-08-11T14:48:27.731Z,29.50
2022-08-11T14:50:55.639Z,29.50
2022-08-11T14:53:24.284Z,29.50
2022-08-11T14:56:10.837Z,29.50
2022-08-11T14:58:40.101Z,29.50
2022-08-11T15:01:27.698Z,29.50
2022-08-11T15:04:34.525Z,29.50
2022-08-11T15:06:43.798Z,29.40
2022-08-11T15:09:11.034Z,29.40
2022-08-11T15:11:57.819Z,29.40
2022-08-11T15:14:44.226Z,29.40
2022-08-11T15:17:13.031Z,29.40
2022-08-11T15:20:02.332Z,29.40
2022-08-11T15:22:48.208Z,29.50
2022-08-11T15:25:15.939Z,29.50
2022-08-11T15:28:10.552Z,29.50
2022-08-11T15:30:57.257Z,29.40
2022-08-11T15:33:45.990Z,29.40
2022-08-11T15:36:35.190Z,29.50
2022-08-11T15:39:19.437Z,29.50
2022-08-11T15:42:12.643Z,29.50
2022-08-11T15:45:03.703Z,29.50
2022-08-11T15:47:41.556Z,29.50
2022-08-11T15:50:16.107Z,29.50
2022-08-11T15:53:01.112Z,29.40
2022-08-11T15:55:30.490Z,29.40
2022-08-11T15:58:22.158Z,29.40
2022-08-11T16:01:09.855Z,29.40
2022-08-11T16:04:09.373Z,29.40
2022-08-11T16:07:05.689Z,29.40
2022-08-11T16:09:54.962Z,29.40
2022-08-11T16:12:32.073Z,29.30
2022-08-11T16:15:26.164Z,29.30
2022-08-11T16:17:59.762Z,29.30
2022-08-11T16:20:29.480Z,29.30
2022-08-11T16:23:05.016Z,29.30
2022-08-11T16:27:04.604Z,29.30
2022-08-11T16:28:25.531Z,29.20
2022-08-11T16:30:55.182Z,29.20
2022-08-11T16:33:49.765Z,29.20
2022-08-11T16:36:32.431Z,29.20
2022-08-11T16:39:02.045Z,29.20
2022-08-11T16:41:52.930Z,29.20
2022-08-11T16:44:41.115Z,29.10
2022-08-11T16:47:13.410Z,29.10
2022-08-11T16:49:52.730Z,29.10
2022-08-11T16:52:23.962Z,29.00
2022-08-11T16:54:52.919Z,29.00
2022-08-11T16:57:45.302Z,29.00
2022-08-11T17:00:17.894Z,29.00
2022-08-11T17:03:11.944Z,29.00
2022-08-11T17:06:10.659Z,29.00
2022-08-11T17:09:08.264Z,29.00
2022-08-11T17:12:02.902Z,28.90
2022-08-11T17:14:44.665Z,28.90
2022-08-11T17:17:27.007Z,28.90
2022-08-11T17:20:40.750Z,28.90
2022-08-11T17:23:13.250Z,28.90
2022-08-11T17:25:59.665Z,28.80
2022-08-11T17:28:30.971Z,28.80
2022-08-11T17:31:21.814Z,28.80
2022-08-11T17:34:10.533Z,28.80
2022-08-11T17:36:41.786Z,28.80
2022-08-11T17:39:13.682Z,28.70
2022-08-11T17:41:59.528Z,28.70
2022-08-11T17:44:46.472Z,28.70
2022-08-11T17:47:33.773Z,28.70
2022-08-11T17:50:09.322Z,28.60
2022-08-11T17:53:05.554Z,28.70
2022-08-11T17:55:54.913Z,28.60
2022-08-11T17:58:41.933Z,28.60
2022-08-11T18:01:11.434Z,28.60
2022-08-11T18:03:56.447Z,28.60
2022-08-11T18:06:33.685Z,28.60
2022-08-11T18:09:24.593Z,28.60
2022-08-11T18:12:13.106Z,28.60
2022-08-11T18:15:04.312Z,28.50
2022-08-11T18:17:51.072Z,28.50
2022-08-11T18:20:37.787Z,28.50
2022-08-11T18:23:40.514Z,28.50
2022-08-11T18:26:38.900Z,28.40
2022-08-11T18:29:28.414Z,28.40
2022-08-11T18:32:30.012Z,28.40
2022-08-11T18:35:29.028Z,28.30
2022-08-11T18:38:17.923Z,28.30
2022-08-11T18:41:08.645Z,28.30
2022-08-11T18:44:07.206Z,28.30
2022-08-11T18:46:57.399Z,28.20
2022-08-11T18:50:03.566Z,28.20
2022-08-11T18:52:55.351Z,28.10
2022-08-11T18:55:42.609Z,27.90
2022-08-11T18:58:31.455Z,27.80
2022-08-11T19:01:19.566Z,27.70
2022-08-11T19:04:10.622Z,27.60
2022-08-11T19:06:59.357Z,27.50
2022-08-11T19:09:46.700Z,27.30
2022-08-11T19:12:34.331Z,27.20
2022-08-11T19:15:21.468Z,27.10
2022-08-11T19:18:08.553Z,27.00
2022-08-11T19:20:55.626Z,26.90
2022-08-11T19:23:52.976Z,26.80
2022-08-11T19:26:41.841Z,26.60
2022-08-11T19:30:05.298Z,26.50
2022-08-11T19:32:38.362Z,26.40
2022-08-11T19:35:26.332Z,26.20
2022-08-11T19:38:13.469Z,26.10
2022-08-11T19:41:00.993Z,26.10
2022-08-11T19:43:49.499Z,26.00
2022-08-11T19:46:39.098Z,25.90
2022-08-11T19:49:26.085Z,25.90
2022-08-11T19:52:14.918Z,25.80
2022-08-11T19:55:04.879Z,25.70
2022-08-11T19:57:54.150Z,25.70
2022-08-11T20:00:41.589Z,25.60
2022-08-11T20:03:31.816Z,25.60
2022-08-11T20:06:22.911Z,25.50
2022-08-11T20:09:13.387Z,25.50
2022-08-11T20:12:03.753Z,25.40
2022-08-11T20:14:53.847Z,25.40
2022-08-11T20:17:46.034Z,25.30
2022-08-11T20:20:34.878Z,25.30
2022-08-11T20:23:25.307Z,25.20
2022-08-11T20:26:31.284Z,25.10
2022-08-11T20:29:19.833Z,25.10
2022-08-11T20:32:09.375Z,25.00
2022-08-11T20:34:58.402Z,24.90
2022-08-11T20:37:50.861Z,24.90
2022-08-11T20:40:43.371Z,24.90
2022-08-11T20:44:05.632Z,24.80
2022-08-11T20:46:44.234Z,24.80
2022-08-11T20:49:45.324Z,24.70
2022-08-11T20:52:41.569Z,24.70
2022-08-11T20:55:46.332Z,24.60
2022-08-11T21:01:46.489Z,24.50
2022-08-11T21:04:54.397Z,24.50
2022-08-11T21:07:55.485Z,24.50
2022-08-11T21:10:50.573Z,24.40
2022-08-11T21:13:47.607Z,24.40
2022-08-11T21:16:53.409Z,24.40
2022-08-11T21:19:59.481Z,24.30
2022-08-11T21:23:05.291Z,24.30
2022-08-11T21:25:59.822Z,24.20
2022-08-11T21:28:47.552Z,24.20
2022-08-11T21:31:34.966Z,24.20
2022-08-11T21:34:22.501Z,24.10
2022-08-11T21:37:10.017Z,24.10
2022-08-11T21:39:57.260Z,24.10
2022-08-11T21:42:45.800Z,24.00
2022-08-11T21:45:32.812Z,24.00
2022-08-11T21:48:20.050Z,23.90
2022-08-11T21:51:06.546Z,23.90
2022-08-11T21:53:52.486Z,23.80
2022-08-11T21:56:40.467Z,23.80
2022-08-11T21:59:29.214Z,23.70
2022-08-11T22:02:15.348Z,23.70
2022-08-11T22:05:02.288Z,23.70
2022-08-11T22:07:49.072Z,23.60
2022-08-11T22:10:40.835Z,23.60
2022-08-11T22:13:31.472Z,23.60
2022-08-11T22:16:22.423Z,23.60
2022-08-11T22:19:10.783Z,23.60
2022-08-11T22:22:03.108Z,23.50
2022-08-11T22:24:52.789Z,23.50
2022-08-11T22:27:40.011Z,23.50
2022-08-11T22:30:30.848Z,23.50
2022-08-11T22:33:24.440Z,23.40
2022-08-11T22:36:14.095Z,23.40
2022-08-11T22:39:01.760Z,23.40
2022-08-11T22:41:47.771Z,23.40
2022-08-11T22:44:33.834Z,23.40
2022-08-11T22:47:22.638Z,23.40
2022-08-11T22:50:16.989Z,23.30
2022-08-11T22:53:03.949Z,23.30
2022-08-11T22:55:50.487Z,23.30
2022-08-11T22:58:39.977Z,23.30
2022-08-11T23:01:26.429Z,23.30
2022-08-11T23:04:12.925Z,23.20
2022-08-11T23:07:01.257Z,23.20
2022-08-11T23:09:49.218Z,23.20
2022-08-11T23:12:35.720Z,23.10
2022-08-11T23:15:22.277Z,23.10
2022-08-11T23:18:08.486Z,23.10
2022-08-11T23:20:57.576Z,23.10
2022-08-11T23:23:47.207Z,23.00
2022-08-11T23:26:35.177Z,23.00
2022-08-11T23:29:22.173Z,23.00
2022-08-11T23:32:10.112Z,23.00
2022-08-11T23:35:38.110Z,22.90
2022-08-11T23:38:10.263Z,22.90
2022-08-11T23:40:57.691Z,22.80
2022-08-11T23:43:43.810Z,22.80
2022-08-11T23:46:29.812Z,22.80
2022-08-11T23:49:21.183Z,22.80
2022-08-11T23:52:09.225Z,22.70
2022-08-11T23:54:57.454Z,22.70
2022-08-11T23:57:47.950Z,22.70
